createdAt,value
2023-01-07T00:01:42.169Z,2.28
2023-01-07T00:04:12.701Z,2.00
2023-01-07T00:06:41.447Z,1.77
2023-01-07T00:09:12.563Z,1.77
2023-01-07T00:11:41.362Z,2.05
2023-01-07T00:14:10.758Z,1.70
2023-01-07T00:16:38.653Z,3.17
2023-01-07T00:19:07.598Z,2.67
2023-01-07T00:21:35.051Z,1.92
2023-01-07T00:24:04.927Z,1.85
2023-01-07T00:26:34.739Z,2.42
2023-01-07T00:29:02.089Z,3.17
2023-01-07T00:31:32.350Z,2.22
2023-01-07T00:34:00.269Z,2.53
2023-01-07T00:36:29.950Z,2.25
2023-01-07T00:39:06.660Z,2.63
2023-01-07T00:41:34.365Z,3.15
2023-01-07T00:44:01.838Z,2.95
2023-01-07T00:46:29.930Z,3.22
2023-01-07T00:48:57.420Z,2.53
2023-01-07T00:51:24.879Z,2.97
2023-01-07T00:53:52.177Z,2.80
2023-01-07T00:56:19.377Z,2.35
2023-01-07T00:58:47.136Z,2.80
2023-01-07T01:01:15.513Z,2.47
2023-01-07T01:03:42.825Z,2.40
2023-01-07T01:06:16.128Z,2.55
2023-01-07T01:08:45.167Z,2.45
2023-01-07T01:11:13.909Z,3.33
2023-01-07T01:13:41.490Z,2.78
2023-01-07T01:16:11.953Z,3.70
2023-01-07T01:18:40.182Z,2.53
2023-01-07T01:21:09.966Z,2.75
2023-01-07T01:23:37.763Z,3.05
2023-01-07T01:26:06.180Z,2.72
2023-01-07T01:28:34.503Z,2.65
2023-01-07T01:31:01.853Z,3.65
2023-01-07T01:33:36.433Z,2.80
2023-01-07T01:36:10.133Z,4.22
2023-01-07T01:38:38.107Z,3.17
2023-01-07T01:41:06.629Z,3.20
2023-01-07T01:43:40.290Z,3.03
2023-01-07T01:46:15.085Z,3.75
2023-01-07T01:48:52.914Z,4.45
2023-01-07T01:51:24.582Z,3.13
2023-01-07T01:53:52.817Z,3.28
2023-01-07T01:56:25.588Z,2.78
2023-01-07T01:58:57.625Z,4.60
2023-01-07T02:01:25.251Z,4.25
2023-01-07T02:03:53.331Z,4.88
2023-01-07T02:06:26.665Z,4.25
2023-01-07T02:08:55.111Z,4.38
2023-01-07T02:11:49.336Z,3.17
2023-01-07T02:14:38.377Z,4.15
2023-01-07T02:17:14.434Z,2.25
2023-01-07T02:20:03.292Z,4.32
2023-01-07T02:22:49.283Z,3.00
2023-01-07T02:25:28.343Z,4.55
2023-01-07T02:28:17.260Z,3.90
2023-01-07T02:30:50.187Z,2.70
2023-01-07T02:33:22.631Z,5.22
2023-01-07T02:35:52.575Z,4.38
2023-01-07T02:38:32.430Z,2.78
2023-01-07T02:41:21.465Z,2.65
2023-01-07T02:44:05.200Z,4.88
2023-01-07T02:46:45.291Z,3.20
2023-01-07T02:49:15.951Z,3.80
2023-01-07T02:51:45.934Z,4.00
2023-01-07T02:54:21.877Z,3.75
2023-01-07T02:57:02.868Z,3.28
2023-01-07T03:00:03.979Z,3.28
2023-01-07T03:02:49.906Z,4.07
2023-01-07T03:05:17.120Z,3.05
2023-01-07T03:08:02.536Z,2.25
2023-01-07T03:10:42.752Z,2.38
2023-01-07T03:13:17.989Z,2.63
2023-01-07T03:16:03.783Z,2.63
2023-01-07T03:18:35.951Z,2.38
2023-01-07T03:21:08.442Z,4.07
2023-01-07T03:23:39.082Z,3.03
2023-01-07T03:26:07.643Z,4.20
2023-01-07T03:28:41.570Z,3.35
2023-01-07T03:31:14.226Z,3.80
2023-01-07T03:33:53.565Z,4.45
2023-01-07T03:36:27.880Z,4.30
2023-01-07T03:38:57.122Z,2.75
2023-01-07T03:41:44.126Z,3.40
2023-01-07T03:44:13.238Z,3.50
2023-01-07T03:46:40.801Z,3.67
2023-01-07T03:49:08.261Z,4.07
2023-01-07T03:51:36.804Z,4.13
2023-01-07T03:54:05.004Z,4.85
2023-01-07T03:56:32.532Z,4.18
2023-01-07T03:58:59.895Z,3.92
2023-01-07T04:01:27.707Z,3.20
2023-01-07T04:03:55.309Z,2.83
2023-01-07T04:06:22.929Z,3.67
2023-01-07T04:08:50.077Z,4.00
2023-01-07T04:11:17.916Z,2.72
2023-01-07T04:13:45.151Z,3.92
2023-01-07T04:16:12.673Z,2.80
2023-01-07T04:18:39.998Z,5.00
2023-01-07T04:21:07.312Z,3.42
2023-01-07T04:23:34.685Z,3.03
2023-01-07T04:26:02.230Z,3.67
2023-01-07T04:28:29.487Z,3.33
2023-01-07T04:30:59.797Z,3.50
2023-01-07T04:33:27.851Z,4.00
2023-01-07T04:35:57.825Z,3.53
2023-01-07T04:38:25.743Z,4.03
2023-01-07T04:40:54.463Z,2.72
2023-01-07T04:43:21.817Z,4.43
2023-01-07T04:45:48.984Z,3.92
2023-01-07T04:48:17.756Z,4.80
2023-01-07T04:50:47.645Z,2.95
2023-01-07T04:53:15.809Z,3.20
2023-01-07T04:55:44.985Z,2.00
2023-01-07T04:58:14.455Z,2.85
2023-01-07T05:00:41.882Z,4.30
2023-01-07T05:03:09.581Z,4.03
2023-01-07T05:05:37.451Z,3.88
2023-01-07T05:08:04.913Z,3.22
2023-01-07T05:10:33.175Z,3.05
2023-01-07T05:13:06.908Z,3.75
2023-01-07T05:15:35.760Z,2.95
2023-01-07T05:18:03.116Z,3.03
2023-01-07T05:20:30.310Z,3.28
2023-01-07T05:22:58.440Z,2.00
2023-01-07T05:25:25.800Z,3.28
2023-01-07T05:27:53.223Z,3.65
2023-01-07T05:30:23.507Z,2.38
2023-01-07T05:32:50.826Z,2.63
2023-01-07T05:35:18.185Z,2.53
2023-01-07T05:37:46.125Z,3.28
2023-01-07T05:40:13.786Z,2.90
2023-01-07T05:42:42.200Z,1.98
2023-01-07T05:45:09.725Z,1.92
2023-01-07T05:47:36.891Z,2.75
2023-01-07T05:50:04.491Z,2.92
2023-01-07T05:52:31.677Z,3.10
2023-01-07T05:54:59.006Z,2.83
2023-01-07T05:57:26.167Z,2.58
2023-01-07T05:59:53.317Z,2.10
2023-01-07T06:02:20.527Z,1.80
2023-01-07T06:04:47.781Z,2.55
2023-01-07T06:07:15.139Z,2.35
2023-01-07T06:09:42.299Z,1.63
2023-01-07T06:12:10.110Z,2.40
2023-01-07T06:14:37.259Z,2.90
2023-01-07T06:17:04.426Z,2.60
2023-01-07T06:19:31.746Z,1.80
2023-01-07T06:21:59.629Z,1.75
2023-01-07T06:24:26.893Z,1.40
2023-01-07T06:26:54.031Z,2.13
2023-01-07T06:29:21.182Z,2.00
2023-01-07T06:31:48.285Z,2.20
2023-01-07T06:34:15.447Z,2.75
2023-01-07T06:36:42.630Z,2.30
2023-01-07T06:39:09.786Z,2.30
2023-01-07T06:41:36.959Z,2.53
2023-01-07T06:44:04.186Z,3.80
2023-01-07T06:46:31.482Z,2.60
2023-01-07T06:48:58.772Z,2.47
2023-01-07T06:51:26.029Z,1.92
2023-01-07T06:53:53.150Z,2.10
2023-01-07T06:56:20.451Z,1.48
2023-01-07T06:58:47.733Z,1.67
2023-01-07T07:01:14.931Z,2.35
2023-01-07T07:03:42.168Z,1.58
2023-01-07T07:06:09.460Z,1.80
2023-01-07T07:08:36.736Z,1.55
2023-01-07T07:11:04.054Z,1.73
2023-01-07T07:13:31.891Z,2.30
2023-01-07T07:15:59.184Z,1.52
2023-01-07T07:18:27.112Z,2.65
2023-01-07T07:20:54.313Z,2.97
2023-01-07T07:23:21.415Z,3.50
2023-01-07T07:25:48.560Z,2.28
2023-01-07T07:28:17.221Z,2.50
2023-01-07T07:30:47.422Z,2.58
2023-01-07T07:33:15.693Z,3.75
2023-01-07T07:35:42.866Z,2.22
2023-01-07T07:38:10.271Z,3.63
2023-01-07T07:40:37.450Z,2.28
2023-01-07T07:43:10.461Z,2.72
2023-01-07T07:45:41.461Z,1.83
2023-01-07T07:48:09.562Z,1.67
2023-01-07T07:50:37.412Z,1.33
2023-01-07T07:53:05.139Z,1.58
2023-01-07T07:55:32.416Z,1.30
2023-01-07T07:57:59.652Z,1.45
2023-01-07T08:00:26.943Z,1.10
2023-01-07T08:02:58.145Z,1.27
2023-01-07T08:05:26.121Z,1.30
2023-01-07T08:07:53.785Z,1.17
2023-01-07T08:10:21.337Z,1.08
2023-01-07T08:12:50.603Z,0.90
2023-01-07T08:15:18.385Z,1.00
2023-01-07T08:17:45.706Z,1.25
2023-01-07T08:20:13.176Z,1.33
2023-01-07T08:22:40.400Z,1.05
2023-01-07T08:25:07.827Z,0.95
2023-01-07T08:27:34.978Z,1.23
2023-01-07T08:30:02.168Z,0.90
2023-01-07T08:32:29.528Z,1.30
2023-01-07T08:34:57.846Z,1.20
2023-01-07T08:37:24.961Z,1.20
2023-01-07T08:39:52.217Z,0.90
2023-01-07T08:42:19.648Z,1.00
2023-01-07T08:44:46.817Z,1.20
2023-01-07T08:47:14.024Z,0.90
2023-01-07T08:49:41.218Z,2.03
2023-01-07T08:52:08.427Z,1.00
2023-01-07T08:54:35.579Z,1.10
2023-01-07T08:57:02.777Z,0.88
2023-01-07T08:59:30.149Z,0.93
2023-01-07T09:01:57.596Z,0.82
2023-01-07T09:04:24.845Z,1.05
2023-01-07T09:06:51.951Z,1.20
2023-01-07T09:09:19.094Z,1.00
2023-01-07T09:11:46.145Z,1.27
2023-01-07T09:14:13.354Z,1.20
2023-01-07T09:16:40.557Z,1.33
2023-01-07T09:19:07.756Z,1.05
2023-01-07T09:21:34.956Z,0.80
2023-01-07T09:24:02.118Z,1.10
2023-01-07T09:26:29.464Z,1.13
2023-01-07T09:28:56.712Z,1.02
2023-01-07T09:31:24.225Z,1.35
2023-01-07T09:33:51.783Z,1.08
2023-01-07T09:36:19.064Z,1.17
2023-01-07T09:38:46.241Z,1.30
2023-01-07T09:41:28.648Z,1.20
2023-01-07T09:44:01.961Z,1.40
2023-01-07T09:46:32.512Z,1.45
2023-01-07T09:49:02.895Z,1.13
2023-01-07T09:51:41.417Z,1.75
2023-01-07T09:54:21.628Z,1.42
2023-01-07T09:56:48.869Z,0.90
2023-01-07T09:59:17.616Z,0.95
2023-01-07T10:02:26.130Z,1.20
2023-01-07T10:05:37.679Z,1.23
2023-01-07T10:08:29.026Z,1.60
2023-01-07T10:11:14.948Z,1.02
2023-01-07T10:13:54.586Z,1.60
2023-01-07T10:16:24.740Z,1.20
2023-01-07T10:19:07.261Z,1.48
2023-01-07T10:21:39.122Z,1.33
2023-01-07T10:24:17.282Z,2.28
2023-01-07T10:26:49.161Z,1.48
2023-01-07T10:29:44.945Z,1.50
2023-01-07T10:32:20.907Z,1.00
2023-01-07T10:34:51.378Z,1.30
2023-01-07T10:37:33.595Z,1.17
2023-01-07T10:40:30.466Z,1.42
2023-01-07T10:43:13.829Z,1.10
2023-01-07T10:45:57.353Z,1.00
2023-01-07T10:48:42.356Z,0.85
2023-01-07T10:52:03.809Z,0.90
2023-01-07T10:54:55.034Z,1.05
2023-01-07T10:57:25.927Z,1.17
2023-01-07T10:59:57.668Z,0.95
2023-01-07T11:02:27.791Z,1.20
2023-01-07T11:04:56.842Z,0.90
2023-01-07T11:07:48.479Z,0.60
2023-01-07T11:10:25.371Z,0.95
2023-01-07T11:13:15.701Z,1.20
2023-01-07T11:15:49.279Z,0.90
2023-01-07T11:18:26.614Z,1.10
2023-01-07T11:20:56.202Z,0.93
2023-01-07T11:23:43.897Z,0.70
2023-01-07T11:26:24.973Z,0.70
2023-01-07T11:28:58.532Z,1.00
2023-01-07T11:31:50.455Z,0.93
2023-01-07T11:34:25.621Z,0.90
2023-01-07T11:36:53.030Z,1.20
2023-01-07T11:39:27.044Z,1.20
2023-01-07T11:42:36.007Z,0.90
2023-01-07T11:45:17.109Z,0.80
2023-01-07T11:48:17.987Z,0.90
2023-01-07T11:50:54.562Z,0.70
2023-01-07T11:53:33.801Z,0.95
2023-01-07T11:56:00.949Z,0.93
2023-01-07T11:58:33.871Z,1.20
2023-01-07T12:01:13.115Z,0.88
2023-01-07T12:03:43.828Z,0.80
2023-01-07T12:06:34.787Z,0.82
2023-01-07T12:09:02.034Z,0.90
2023-01-07T12:11:36.803Z,1.10
2023-01-07T12:14:17.454Z,1.00
2023-01-07T12:16:45.951Z,0.80
2023-01-07T12:19:34.371Z,0.68
2023-01-07T12:22:04.412Z,0.70
2023-01-07T12:24:59.964Z,0.65
2023-01-07T12:27:27.247Z,0.80
2023-01-07T12:30:37.236Z,0.90
2023-01-07T12:33:11.340Z,0.70
2023-01-07T12:35:48.417Z,1.05
2023-01-07T12:38:35.167Z,0.82
2023-01-07T12:41:11.715Z,1.27
2023-01-07T12:43:52.550Z,0.70
2023-01-07T12:46:21.752Z,0.70
2023-01-07T12:49:02.922Z,0.88
2023-01-07T12:51:42.834Z,0.90
2023-01-07T12:54:44.781Z,0.88
2023-01-07T12:57:20.320Z,0.70
2023-01-07T13:00:16.873Z,0.60
2023-01-07T13:03:10.591Z,0.80
2023-01-07T13:05:44.094Z,0.90
2023-01-07T13:08:32.578Z,0.82
2023-01-07T13:11:05.572Z,0.93
2023-01-07T13:13:41.133Z,0.88
2023-01-07T13:16:11.098Z,0.90
2023-01-07T13:18:38.591Z,0.75
2023-01-07T13:21:14.625Z,0.95
2023-01-07T13:23:41.727Z,0.98
2023-01-07T13:26:25.547Z,0.70
2023-01-07T13:29:21.052Z,0.60
2023-01-07T13:32:19.419Z,0.77
2023-01-07T13:35:04.939Z,0.65
2023-01-07T13:37:54.673Z,0.60
2023-01-07T13:40:40.662Z,0.50
2023-01-07T13:43:26.181Z,0.70
2023-01-07T13:46:29.887Z,0.77
2023-01-07T13:48:57.612Z,0.80
2023-01-07T13:51:31.263Z,0.70
2023-01-07T13:53:58.761Z,0.90
2023-01-07T13:56:26.085Z,0.93
2023-01-07T13:58:55.604Z,0.95
2023-01-07T14:01:23.720Z,3.47
2023-01-07T14:03:53.290Z,5.15
2023-01-07T14:06:20.647Z,14.30
2023-01-07T14:08:58.700Z,5.40
2023-01-07T14:11:35.451Z,3.00
2023-01-07T14:14:30.442Z,2.50
2023-01-07T14:17:03.856Z,4.20
2023-01-07T14:19:49.827Z,2.10
2023-01-07T14:22:26.451Z,1.75
2023-01-07T14:24:59.919Z,1.30
2023-01-07T14:27:32.872Z,1.20
2023-01-07T14:30:22.147Z,1.02
2023-01-07T14:33:17.315Z,1.38
2023-01-07T14:36:00.041Z,1.20
2023-01-07T14:38:30.062Z,1.10
2023-01-07T14:41:03.488Z,1.27
2023-01-07T14:43:48.529Z,1.00
2023-01-07T14:46:24.998Z,0.80
2023-01-07T14:49:04.148Z,1.10
2023-01-07T14:51:54.293Z,1.30
2023-01-07T14:54:50.813Z,0.93
2023-01-07T14:57:39.470Z,1.33
2023-01-07T15:00:43.036Z,0.80
2023-01-07T15:03:23.479Z,0.80
2023-01-07T15:06:09.406Z,0.80
2023-01-07T15:09:20.885Z,0.88
2023-01-07T15:12:08.007Z,0.60
2023-01-07T15:15:03.932Z,0.80
2023-01-07T15:17:31.417Z,0.77
2023-01-07T15:19:59.440Z,0.70
2023-01-07T15:22:51.395Z,0.82
2023-01-07T15:25:22.748Z,1.30
2023-01-07T15:28:04.322Z,1.10
2023-01-07T15:30:50.022Z,0.90
2023-01-07T15:33:49.112Z,0.80
2023-01-07T15:36:16.793Z,1.50
2023-01-07T15:38:50.698Z,1.20
2023-01-07T15:41:29.814Z,1.55
2023-01-07T15:43:58.154Z,1.42
2023-01-07T15:46:26.924Z,1.52
2023-01-07T15:49:23.071Z,1.25
2023-01-07T15:51:54.856Z,1.63
2023-01-07T15:54:29.052Z,1.20
2023-01-07T15:57:11.411Z,0.70
2023-01-07T15:59:46.890Z,0.95
2023-01-07T16:02:19.713Z,1.13
2023-01-07T16:04:48.702Z,1.23
2023-01-07T16:07:23.887Z,1.05
2023-01-07T16:09:52.285Z,1.00
2023-01-07T16:12:26.171Z,1.02
2023-01-07T16:14:53.344Z,1.75
2023-01-07T16:17:20.953Z,1.30
2023-01-07T16:19:48.230Z,1.50
2023-01-07T16:35:34.888Z,2.28
2023-01-07T16:38:03.672Z,2.08
2023-01-07T16:40:37.498Z,1.20
2023-01-07T16:43:05.872Z,1.02
2023-01-07T16:45:35.042Z,1.77
2023-01-07T16:48:21.590Z,1.33
2023-01-07T16:50:49.811Z,1.60
2023-01-07T16:53:43.439Z,2.17
2023-01-07T16:56:16.958Z,1.67
2023-01-07T16:58:49.220Z,1.33
2023-01-07T17:01:36.877Z,1.92
2023-01-07T17:04:10.046Z,2.08
2023-01-07T17:06:42.460Z,1.75
2023-01-07T17:09:28.933Z,2.08
2023-01-07T17:11:56.311Z,2.17
2023-01-07T17:14:38.472Z,2.97
2023-01-07T17:17:19.652Z,2.90
2023-01-07T17:19:53.575Z,1.38
2023-01-07T17:22:35.347Z,1.27
2023-01-07T17:25:11.188Z,1.60
2023-01-07T17:28:25.469Z,1.48
2023-01-07T17:30:53.570Z,1.85
2023-01-07T17:33:23.628Z,1.10
2023-01-07T17:35:54.376Z,1.60
2023-01-07T17:38:21.465Z,2.00
2023-01-07T17:40:48.654Z,2.53
2023-01-07T17:43:34.210Z,2.25
2023-01-07T17:46:02.439Z,1.50
2023-01-07T17:48:30.041Z,2.60
2023-01-07T17:50:58.083Z,1.80
2023-01-07T17:53:32.429Z,2.30
2023-01-07T17:56:03.011Z,2.70
2023-01-07T17:58:33.488Z,2.30
2023-01-07T18:01:05.444Z,1.70
2023-01-07T18:03:33.439Z,1.75
2023-01-07T18:06:00.899Z,2.13
2023-01-07T18:08:28.187Z,1.40
2023-01-07T18:11:16.064Z,1.45
2023-01-07T18:13:43.550Z,1.92
2023-01-07T18:16:14.862Z,2.25
2023-01-07T18:18:42.034Z,1.60
2023-01-07T18:21:11.474Z,1.98
2023-01-07T18:23:38.805Z,2.08
2023-01-07T18:26:06.613Z,1.73
2023-01-07T18:28:33.748Z,1.80
2023-01-07T18:31:00.972Z,1.30
2023-01-07T18:33:28.302Z,2.10
2023-01-07T18:35:55.571Z,1.98
2023-01-07T18:38:22.714Z,1.90
2023-01-07T18:40:49.873Z,1.80
2023-01-07T18:43:18.780Z,1.60
2023-01-07T18:45:47.199Z,3.20
2023-01-07T18:48:16.560Z,2.30
2023-01-07T18:50:46.839Z,2.38
2023-01-07T18:53:15.277Z,1.67
2023-01-07T18:55:46.558Z,1.85
2023-01-07T18:58:15.380Z,1.90
2023-01-07T19:00:42.700Z,1.40
2023-01-07T19:03:10.920Z,2.20
2023-01-07T19:05:41.141Z,2.10
2023-01-07T19:08:08.786Z,1.83
2023-01-07T19:10:40.449Z,1.35
2023-01-07T19:13:07.683Z,2.33
2023-01-07T19:15:35.004Z,1.90
2023-01-07T19:18:02.307Z,1.35
2023-01-07T19:20:29.407Z,2.47
2023-01-07T19:23:00.487Z,2.00
2023-01-07T19:25:29.597Z,2.15
2023-01-07T19:27:57.638Z,2.35
2023-01-07T19:30:25.763Z,2.63
2023-01-07T19:32:53.338Z,1.70
2023-01-07T19:35:20.811Z,1.98
2023-01-07T19:37:49.066Z,1.85
2023-01-07T19:40:16.819Z,1.83
2023-01-07T19:42:44.000Z,2.03
2023-01-07T19:45:11.455Z,2.33
2023-01-07T19:47:39.462Z,2.33
2023-01-07T19:50:07.266Z,1.60
2023-01-07T19:52:34.443Z,1.27
2023-01-07T19:55:01.527Z,1.73
2023-01-07T19:57:29.129Z,1.50
2023-01-07T19:59:56.394Z,1.40
2023-01-07T20:02:23.601Z,1.90
2023-01-07T20:04:50.972Z,3.03
2023-01-07T20:07:18.076Z,5.47
2023-01-07T20:09:45.260Z,3.03
2023-01-07T20:12:12.518Z,2.70
2023-01-07T20:14:39.845Z,3.90
2023-01-07T20:17:06.985Z,3.08
2023-01-07T20:19:34.172Z,2.30
2023-01-07T20:22:01.277Z,2.95
2023-01-07T20:24:29.770Z,2.80
2023-01-07T20:26:56.978Z,2.05
2023-01-07T20:29:24.381Z,1.80
2023-01-07T20:31:51.743Z,1.63
2023-01-07T20:34:19.021Z,2.13
2023-01-07T20:36:46.175Z,1.70
2023-01-07T20:39:13.352Z,1.70
2023-01-07T20:41:43.181Z,2.88
2023-01-07T20:44:11.732Z,1.58
2023-01-07T20:46:40.042Z,1.45
2023-01-07T20:49:08.215Z,2.10
2023-01-07T20:51:35.373Z,1.42
2023-01-07T20:54:03.304Z,1.80
2023-01-07T20:56:32.619Z,1.33
2023-01-07T20:59:00.987Z,2.05
2023-01-07T21:01:29.681Z,2.33
2023-01-07T21:03:57.107Z,3.22
2023-01-07T21:06:24.980Z,2.03
2023-01-07T21:08:52.312Z,1.60
2023-01-07T21:11:21.466Z,1.83
2023-01-07T21:13:50.163Z,1.63
2023-01-07T21:16:17.595Z,1.33
2023-01-07T21:18:44.746Z,1.42
2023-01-07T21:21:21.278Z,1.75
2023-01-07T21:23:49.557Z,2.10
2023-01-07T21:26:17.754Z,1.40
2023-01-07T21:28:45.324Z,1.30
2023-01-07T21:31:15.589Z,1.90
2023-01-07T21:33:43.703Z,1.70
2023-01-07T21:36:15.898Z,1.65
2023-01-07T21:38:44.047Z,2.35
2023-01-07T21:41:16.325Z,2.95
2023-01-07T21:43:44.542Z,2.63
2023-01-07T21:46:12.715Z,1.95
2023-01-07T21:48:41.564Z,2.40
2023-01-07T21:51:12.701Z,1.60
2023-01-07T21:53:41.164Z,1.83
2023-01-07T21:56:16.604Z,2.08
2023-01-07T21:58:45.694Z,1.55
2023-01-07T22:01:13.737Z,2.05
2023-01-07T22:03:46.240Z,2.17
2023-01-07T22:06:26.537Z,1.63
2023-01-07T22:09:04.986Z,1.92
2023-01-07T22:11:33.757Z,1.60
2023-01-07T22:14:01.908Z,1.70
2023-01-07T22:16:32.047Z,1.88
2023-01-07T22:19:00.028Z,1.85
2023-01-07T22:21:27.456Z,1.75
2023-01-07T22:23:54.625Z,1.25
2023-01-07T22:26:22.087Z,1.35
2023-01-07T22:28:55.375Z,2.53
2023-01-07T22:31:25.316Z,1.83
2023-01-07T22:33:52.947Z,1.65
2023-01-07T22:36:40.394Z,1.85
2023-01-07T22:39:30.646Z,1.60
2023-01-07T22:42:02.014Z,1.60
2023-01-07T22:44:36.827Z,1.70
2023-01-07T22:47:07.670Z,2.15
2023-01-07T22:49:35.241Z,2.40
2023-01-07T22:52:02.531Z,2.08
2023-01-07T22:54:31.026Z,1.73
2023-01-07T22:56:58.283Z,1.25
2023-01-07T22:59:25.426Z,1.20
2023-01-07T23:01:52.607Z,1.85
2023-01-07T23:04:19.930Z,1.27
2023-01-07T23:06:47.155Z,1.50
2023-01-07T23:09:14.368Z,1.85
2023-01-07T23:11:59.272Z,1.20
2023-01-07T23:14:27.378Z,1.10
2023-01-07T23:16:55.208Z,1.20
2023-01-07T23:19:22.803Z,1.83
2023-01-07T23:21:53.126Z,1.85
2023-01-07T23:24:21.655Z,2.65
2023-01-07T23:26:50.665Z,1.50
2023-01-07T23:29:19.069Z,2.13
2023-01-07T23:31:46.571Z,1.50
2023-01-07T23:34:14.797Z,1.98
2023-01-07T23:36:42.015Z,1.92
2023-01-07T23:39:09.251Z,2.10
2023-01-07T23:41:36.407Z,2.45
2023-01-07T23:44:03.606Z,2.15
2023-01-07T23:46:33.059Z,2.38
2023-01-07T23:49:00.437Z,2.35
2023-01-07T23:51:27.714Z,2.95
2023-01-07T23:53:55.033Z,1.98
2023-01-07T23:56:22.793Z,1.90
2023-01-07T23:58:50.562Z,2.03
